sensor_id;sensor_type;location;lat;lon;timestamp;pressure;altitude;pressure_sealevel;temperature;humidity
82035;BME280;71599;49.892;18.914;2023-09-12T00:04:22;98469.16;;;16.86;71.15
82035;BME280;71599;49.892;18.914;2023-09-12T00:09:24;98464.81;;;16.85;70.55
82035;BME280;71599;49.892;18.914;2023-09-12T00:14:25;98457.03;;;16.73;70.77
82035;BME280;71599;49.892;18.914;2023-09-12T00:19:26;98451.63;;;16.62;70.79
82035;BME280;71599;49.892;18.914;2023-09-12T00:24:28;98464.63;;;16.66;70.66
82035;BME280;71599;49.892;18.914;2023-09-12T00:29:29;98461.13;;;16.54;70.86
82035;BME280;71599;49.892;18.914;2023-09-12T00:34:30;98462.81;;;16.41;72.95
82035;BME280;71599;49.892;18.914;2023-09-12T00:39:32;98464.09;;;16.30;72.55
82035;BME280;71599;49.892;18.914;2023-09-12T00:44:33;98458.16;;;16.31;72.42
82035;BME280;71599;49.892;18.914;2023-09-12T00:49:35;98451.78;;;16.38;71.51
82035;BME280;71599;49.892;18.914;2023-09-12T00:54:37;98448.28;;;16.34;71.78
82035;BME280;71599;49.892;18.914;2023-09-12T00:59:39;98456.63;;;16.27;71.45
82035;BME280;71599;49.892;18.914;2023-09-12T01:04:40;98449.06;;;16.34;71.80
82035;BME280;71599;49.892;18.914;2023-09-12T01:09:44;98462.09;;;16.30;72.43
82035;BME280;71599;49.892;18.914;2023-09-12T01:14:45;98459.41;;;16.19;73.15
82035;BME280;71599;49.892;18.914;2023-09-12T01:19:46;98459.84;;;16.14;72.59
82035;BME280;71599;49.892;18.914;2023-09-12T01:25:19;98452.84;;;16.03;74.90
82035;BME280;71599;49.892;18.914;2023-09-12T01:30:31;98453.59;;;16.07;73.74
82035;BME280;71599;49.892;18.914;2023-09-12T01:35:33;98456.69;;;16.16;72.48
82035;BME280;71599;49.892;18.914;2023-09-12T01:40:42;98455.94;;;16.08;73.60
82035;BME280;71599;49.892;18.914;2023-09-12T01:45:46;98457.88;;;16.11;72.96
82035;BME280;71599;49.892;18.914;2023-09-12T01:50:48;98460.72;;;16.01;73.55
82035;BME280;71599;49.892;18.914;2023-09-12T01:55:50;98460.69;;;16.08;72.89
82035;BME280;71599;49.892;18.914;2023-09-12T02:00:52;98463.81;;;16.10;72.44
82035;BME280;71599;49.892;18.914;2023-09-12T02:05:53;98462.25;;;16.05;72.94
82035;BME280;71599;49.892;18.914;2023-09-12T02:10:54;98465.44;;;16.00;72.57
82035;BME280;71599;49.892;18.914;2023-09-12T02:16:00;98463.06;;;16.02;73.02
82035;BME280;71599;49.892;18.914;2023-09-12T02:21:01;98469.78;;;16.01;72.05
82035;BME280;71599;49.892;18.914;2023-09-12T02:26:02;98458.06;;;15.83;73.83
82035;BME280;71599;49.892;18.914;2023-09-12T02:31:09;98457.31;;;15.79;73.89
82035;BME280;71599;49.892;18.914;2023-09-12T02:36:10;98455.34;;;15.79;73.23
82035;BME280;71599;49.892;18.914;2023-09-12T02:41:11;98451.41;;;15.80;72.86
82035;BME280;71599;49.892;18.914;2023-09-12T02:46:14;98460.09;;;15.72;73.37
82035;BME280;71599;49.892;18.914;2023-09-12T02:51:15;98456.13;;;15.76;72.85
82035;BME280;71599;49.892;18.914;2023-09-12T02:56:16;98456.19;;;15.66;73.70
82035;BME280;71599;49.892;18.914;2023-09-12T03:01:19;98454.16;;;15.77;73.29
82035;BME280;71599;49.892;18.914;2023-09-12T03:06:20;98457.69;;;15.77;73.35
82035;BME280;71599;49.892;18.914;2023-09-12T03:11:21;98452.22;;;15.74;73.32
82035;BME280;71599;49.892;18.914;2023-09-12T03:16:23;98464.44;;;15.73;73.31
82035;BME280;71599;49.892;18.914;2023-09-12T03:21:24;98462.47;;;15.70;72.93
82035;BME280;71599;49.892;18.914;2023-09-12T03:26:25;98464.47;;;15.62;73.51
82035;BME280;71599;49.892;18.914;2023-09-12T03:31:28;98459.72;;;15.63;73.26
82035;BME280;71599;49.892;18.914;2023-09-12T03:36:29;98459.34;;;15.64;73.52
82035;BME280;71599;49.892;18.914;2023-09-12T03:41:30;98464.06;;;15.64;73.14
82035;BME280;71599;49.892;18.914;2023-09-12T03:46:32;98456.19;;;15.66;73.39
82035;BME280;71599;49.892;18.914;2023-09-12T03:51:33;98451.47;;;15.63;73.45
82035;BME280;71599;49.892;18.914;2023-09-12T03:56:34;98456.22;;;15.52;73.97
82035;BME280;71599;49.892;18.914;2023-09-12T04:01:37;98457.41;;;15.54;72.94
82035;BME280;71599;49.892;18.914;2023-09-12T04:06:37;98451.16;;;15.43;73.50
82035;BME280;71599;49.892;18.914;2023-09-12T04:11:38;98454.28;;;15.41;73.57
82035;BME280;71599;49.892;18.914;2023-09-12T04:16:41;98460.59;;;15.38;73.19
82035;BME280;71599;49.892;18.914;2023-09-12T04:21:42;98463.34;;;15.42;73.05
82035;BME280;71599;49.892;18.914;2023-09-12T04:26:43;98459.00;;;15.48;73.05
82035;BME280;71599;49.892;18.914;2023-09-12T04:31:45;98459.38;;;15.50;73.08
82035;BME280;71599;49.892;18.914;2023-09-12T04:36:46;98460.13;;;15.51;72.81
82035;BME280;71599;49.892;18.914;2023-09-12T04:41:47;98462.47;;;15.59;73.39
82035;BME280;71599;49.892;18.914;2023-09-12T04:46:49;98459.34;;;15.64;72.95
82035;BME280;71599;49.892;18.914;2023-09-12T04:51:50;98459.34;;;15.68;73.00
82035;BME280;71599;49.892;18.914;2023-09-12T04:56:51;98469.91;;;15.80;72.91
82035;BME280;71599;49.892;18.914;2023-09-12T05:01:54;98479.66;;;15.95;72.60
82035;BME280;71599;49.892;18.914;2023-09-12T05:06:55;98477.97;;;16.15;72.59
82035;BME280;71599;49.892;18.914;2023-09-12T05:11:56;98483.00;;;16.79;71.79
82035;BME280;71599;49.892;18.914;2023-09-12T05:16:59;98469.66;;;17.53;69.87
82035;BME280;71599;49.892;18.914;2023-09-12T05:22:00;98474.81;;;18.38;68.06
82035;BME280;71599;49.892;18.914;2023-09-12T05:27:01;98480.41;;;18.85;66.82
82035;BME280;71599;49.892;18.914;2023-09-12T05:32:03;98456.44;;;19.61;65.14
82035;BME280;71599;49.892;18.914;2023-09-12T05:37:05;98465.53;;;20.01;64.07
82035;BME280;71599;49.892;18.914;2023-09-12T05:42:06;98472.41;;;20.29;63.76
82035;BME280;71599;49.892;18.914;2023-09-12T05:47:08;98479.28;;;20.89;62.48
82035;BME280;71599;49.892;18.914;2023-09-12T05:52:09;98472.97;;;21.33;61.68
82035;BME280;71599;49.892;18.914;2023-09-12T05:57:11;98474.00;;;21.39;61.05
82035;BME280;71599;49.892;18.914;2023-09-12T06:02:14;98475.72;;;21.50;61.62
82035;BME280;71599;49.892;18.914;2023-09-12T06:07:15;98474.28;;;21.99;60.35
82035;BME280;71599;49.892;18.914;2023-09-12T06:12:15;98470.19;;;23.14;57.34
82035;BME280;71599;49.892;18.914;2023-09-12T06:17:18;98474.19;;;24.22;54.23
82035;BME280;71599;49.892;18.914;2023-09-12T06:22:19;98468.34;;;24.78;52.70
82035;BME280;71599;49.892;18.914;2023-09-12T06:27:20;98474.94;;;25.39;51.04
82035;BME280;71599;49.892;18.914;2023-09-12T06:32:23;98463.13;;;25.80;49.03
82035;BME280;71599;49.892;18.914;2023-09-12T06:37:24;98475.59;;;26.31;48.43
82035;BME280;71599;49.892;18.914;2023-09-12T06:42:25;98486.63;;;26.67;47.90
82035;BME280;71599;49.892;18.914;2023-09-12T06:47:28;98478.38;;;26.73;46.29
82035;BME280;71599;49.892;18.914;2023-09-12T06:52:29;98477.97;;;27.13;46.07
82035;BME280;71599;49.892;18.914;2023-09-12T06:57:30;98474.34;;;27.21;46.14
82035;BME280;71599;49.892;18.914;2023-09-12T07:02:32;98481.75;;;27.33;45.08
82035;BME280;71599;49.892;18.914;2023-09-12T07:07:33;98472.50;;;27.57;45.93
82035;BME280;71599;49.892;18.914;2023-09-12T07:12:34;98472.28;;;27.60;44.57
82035;BME280;71599;49.892;18.914;2023-09-12T07:17:37;98481.78;;;27.77;43.47
82035;BME280;71599;49.892;18.914;2023-09-12T07:22:38;98475.72;;;28.23;44.29
82035;BME280;71599;49.892;18.914;2023-09-12T07:27:40;98478.41;;;28.32;44.67
82035;BME280;71599;49.892;18.914;2023-09-12T07:32:42;98481.94;;;28.62;43.51
82035;BME280;71599;49.892;18.914;2023-09-12T07:37:43;98485.78;;;28.30;44.50
82035;BME280;71599;49.892;18.914;2023-09-12T07:42:44;98492.69;;;27.99;46.03
82035;BME280;71599;49.892;18.914;2023-09-12T07:47:46;98490.25;;;28.21;43.77
82035;BME280;71599;49.892;18.914;2023-09-12T07:52:47;98478.09;;;28.59;43.60
82035;BME280;71599;49.892;18.914;2023-09-12T07:57:48;98485.72;;;29.29;43.08
82035;BME280;71599;49.892;18.914;2023-09-12T08:02:51;98482.03;;;29.43;41.81
82035;BME280;71599;49.892;18.914;2023-09-12T08:07:51;98477.41;;;29.40;42.71
82035;BME280;71599;49.892;18.914;2023-09-12T08:12:52;98486.09;;;29.62;42.90
82035;BME280;71599;49.892;18.914;2023-09-12T08:17:55;98489.13;;;30.10;40.72
82035;BME280;71599;49.892;18.914;2023-09-12T08:22:56;98492.44;;;30.09;40.14
82035;BME280;71599;49.892;18.914;2023-09-12T08:27:57;98488.16;;;30.13;41.36
82035;BME280;71599;49.892;18.914;2023-09-12T08:33:00;98484.84;;;29.89;40.61
82035;BME280;71599;49.892;18.914;2023-09-12T08:38:01;98485.53;;;30.10;41.80
82035;BME280;71599;49.892;18.914;2023-09-12T08:43:03;98482.69;;;30.36;40.24
82035;BME280;71599;49.892;18.914;2023-09-12T08:48:07;98479.75;;;30.50;38.49
82035;BME280;71599;49.892;18.914;2023-09-12T08:53:08;98477.53;;;30.03;40.34
82035;BME280;71599;49.892;18.914;2023-09-12T08:58:09;98482.50;;;29.62;39.94
82035;BME280;71599;49.892;18.914;2023-09-12T09:03:12;98474.41;;;29.49;40.53
82035;BME280;71599;49.892;18.914;2023-09-12T09:08:15;98476.16;;;29.93;39.04
82035;BME280;71599;49.892;18.914;2023-09-12T09:13:16;98479.66;;;30.08;39.54
82035;BME280;71599;49.892;18.914;2023-09-12T09:18:19;98470.38;;;30.02;39.86
82035;BME280;71599;49.892;18.914;2023-09-12T09:23:20;98472.44;;;30.07;39.90
82035;BME280;71599;49.892;18.914;2023-09-12T09:28:21;98465.09;;;30.46;39.11
82035;BME280;71599;49.892;18.914;2023-09-12T09:33:23;98477.00;;;30.61;39.93
82035;BME280;71599;49.892;18.914;2023-09-12T09:38:25;98473.31;;;30.81;39.02
82035;BME280;71599;49.892;18.914;2023-09-12T09:43:26;98469.31;;;30.62;38.08
82035;BME280;71599;49.892;18.914;2023-09-12T09:48:29;98462.00;;;30.44;39.12
82035;BME280;71599;49.892;18.914;2023-09-12T09:53:30;98470.63;;;30.30;38.92
82035;BME280;71599;49.892;18.914;2023-09-12T09:58:32;98459.75;;;30.54;38.85
82035;BME280;71599;49.892;18.914;2023-09-12T10:03:36;98457.22;;;30.56;36.23
82035;BME280;71599;49.892;18.914;2023-09-12T10:08:37;98462.19;;;30.67;35.89
82035;BME280;71599;49.892;18.914;2023-09-12T10:13:43;98465.66;;;30.50;33.91
82035;BME280;71599;49.892;18.914;2023-09-12T10:18:57;98450.16;;;30.35;33.95
82035;BME280;71599;49.892;18.914;2023-09-12T10:23:59;98450.78;;;30.92;36.79
82035;BME280;71599;49.892;18.914;2023-09-12T10:29:00;98445.13;;;30.87;34.90
82035;BME280;71599;49.892;18.914;2023-09-12T10:34:05;98447.34;;;30.72;35.76
82035;BME280;71599;49.892;18.914;2023-09-12T10:39:06;98438.09;;;30.71;36.04
82035;BME280;71599;49.892;18.914;2023-09-12T10:44:11;98440.53;;;30.95;31.96
82035;BME280;71599;49.892;18.914;2023-09-12T10:49:14;98442.88;;;31.02;34.24
82035;BME280;71599;49.892;18.914;2023-09-12T10:54:23;98444.34;;;30.86;34.91
82035;BME280;71599;49.892;18.914;2023-09-12T10:59:24;98447.16;;;30.86;35.01
82035;BME280;71599;49.892;18.914;2023-09-12T11:04:34;98442.06;;;30.96;33.50
82035;BME280;71599;49.892;18.914;2023-09-12T11:09:35;98443.66;;;31.08;34.51
82035;BME280;71599;49.892;18.914;2023-09-12T11:14:36;98442.94;;;31.19;33.96
82035;BME280;71599;49.892;18.914;2023-09-12T11:19:44;98435.94;;;31.03;31.04
82035;BME280;71599;49.892;18.914;2023-09-12T11:24:46;98426.88;;;31.41;33.64
82035;BME280;71599;49.892;18.914;2023-09-12T11:29:47;98431.25;;;31.54;33.64
82035;BME280;71599;49.892;18.914;2023-09-12T11:34:49;98432.81;;;30.90;35.44
82035;BME280;71599;49.892;18.914;2023-09-12T11:39:50;98431.09;;;31.09;35.20
82035;BME280;71599;49.892;18.914;2023-09-12T11:44:52;98424.03;;;31.41;35.34
82035;BME280;71599;49.892;18.914;2023-09-12T11:49:54;98414.31;;;30.83;34.25
82035;BME280;71599;49.892;18.914;2023-09-12T11:54:55;98427.22;;;31.07;33.50
82035;BME280;71599;49.892;18.914;2023-09-12T11:59:56;98412.69;;;31.19;33.85
82035;BME280;71599;49.892;18.914;2023-09-12T12:04:59;98412.94;;;31.21;32.69
82035;BME280;71599;49.892;18.914;2023-09-12T12:10:00;98407.81;;;31.31;34.33
82035;BME280;71599;49.892;18.914;2023-09-12T12:15:01;98404.16;;;31.14;34.39
82035;BME280;71599;49.892;18.914;2023-09-12T12:20:04;98399.56;;;31.16;33.93
82035;BME280;71599;49.892;18.914;2023-09-12T12:25:06;98399.13;;;31.34;33.48
82035;BME280;71599;49.892;18.914;2023-09-12T12:30:10;98394.47;;;31.26;31.57
82035;BME280;71599;49.892;18.914;2023-09-12T12:35:18;98404.94;;;30.60;31.90
82035;BME280;71599;49.892;18.914;2023-09-12T12:40:19;98403.31;;;30.43;33.82
82035;BME280;71599;49.892;18.914;2023-09-12T12:45:22;98394.13;;;30.53;34.13
82035;BME280;71599;49.892;18.914;2023-09-12T12:50:25;98402.50;;;30.37;32.88
82035;BME280;71599;49.892;18.914;2023-09-12T12:55:26;98393.47;;;30.27;34.03
82035;BME280;71599;49.892;18.914;2023-09-12T13:00:27;98398.63;;;30.34;34.64
82035;BME280;71599;49.892;18.914;2023-09-12T13:05:30;98391.53;;;30.44;32.13
82035;BME280;71599;49.892;18.914;2023-09-12T13:10:31;98393.25;;;30.73;33.75
82035;BME280;71599;49.892;18.914;2023-09-12T13:15:32;98391.22;;;30.79;34.11
82035;BME280;71599;49.892;18.914;2023-09-12T13:20:35;98390.16;;;30.71;33.36
82035;BME280;71599;49.892;18.914;2023-09-12T13:25:36;98380.50;;;30.46;33.89
82035;BME280;71599;49.892;18.914;2023-09-12T13:30:37;98377.69;;;30.46;32.87
82035;BME280;71599;49.892;18.914;2023-09-12T13:35:39;98387.41;;;30.45;34.82
82035;BME280;71599;49.892;18.914;2023-09-12T13:40:40;98365.88;;;30.42;32.87
82035;BME280;71599;49.892;18.914;2023-09-12T13:45:41;98386.13;;;30.46;33.63
82035;BME280;71599;49.892;18.914;2023-09-12T13:50:44;98386.88;;;30.41;33.59
82035;BME280;71599;49.892;18.914;2023-09-12T13:55:45;98381.75;;;30.40;33.29
82035;BME280;71599;49.892;18.914;2023-09-12T14:00:46;98377.19;;;30.11;33.78
82035;BME280;71599;49.892;18.914;2023-09-12T14:05:48;98379.50;;;30.12;33.93
82035;BME280;71599;49.892;18.914;2023-09-12T14:10:49;98385.56;;;30.00;33.59
82035;BME280;71599;49.892;18.914;2023-09-12T14:15:50;98385.75;;;29.59;34.66
82035;BME280;71599;49.892;18.914;2023-09-12T14:20:53;98379.34;;;29.59;36.17
82035;BME280;71599;49.892;18.914;2023-09-12T14:25:54;98379.53;;;29.55;34.64
82035;BME280;71599;49.892;18.914;2023-09-12T14:30:55;98382.94;;;29.59;34.96
82035;BME280;71599;49.892;18.914;2023-09-12T14:35:57;98380.78;;;29.54;35.45
82035;BME280;71599;49.892;18.914;2023-09-12T14:40:58;98367.88;;;29.42;34.89
82035;BME280;71599;49.892;18.914;2023-09-12T14:45:59;98382.00;;;29.48;35.60
82035;BME280;71599;49.892;18.914;2023-09-12T14:51:02;98378.34;;;29.41;35.29
82035;BME280;71599;49.892;18.914;2023-09-12T14:56:03;98378.91;;;29.20;35.02
82035;BME280;71599;49.892;18.914;2023-09-12T15:01:04;98379.09;;;29.11;35.92
82035;BME280;71599;49.892;18.914;2023-09-12T15:06:07;98389.97;;;29.03;36.76
82035;BME280;71599;49.892;18.914;2023-09-12T15:11:08;98384.41;;;28.68;34.60
82035;BME280;71599;49.892;18.914;2023-09-12T15:16:09;98375.06;;;28.56;34.51
82035;BME280;71599;49.892;18.914;2023-09-12T15:21:11;98380.59;;;28.51;36.38
82035;BME280;71599;49.892;18.914;2023-09-12T15:26:12;98376.25;;;28.50;37.25
82035;BME280;71599;49.892;18.914;2023-09-12T15:31:13;98377.53;;;28.49;36.76
82035;BME280;71599;49.892;18.914;2023-09-12T15:36:16;98363.19;;;28.32;37.60
82035;BME280;71599;49.892;18.914;2023-09-12T15:41:16;98378.66;;;28.22;37.96
82035;BME280;71599;49.892;18.914;2023-09-12T15:46:17;98374.75;;;28.19;38.04
82035;BME280;71599;49.892;18.914;2023-09-12T15:51:20;98371.59;;;28.12;38.35
82035;BME280;71599;49.892;18.914;2023-09-12T15:56:21;98380.75;;;27.92;40.71
82035;BME280;71599;49.892;18.914;2023-09-12T16:01:22;98371.03;;;27.78;41.22
82035;BME280;71599;49.892;18.914;2023-09-12T16:06:25;98368.13;;;27.58;42.31
82035;BME280;71599;49.892;18.914;2023-09-12T16:11:26;98381.31;;;27.37;42.33
82035;BME280;71599;49.892;18.914;2023-09-12T16:16:27;98370.63;;;27.12;44.13
82035;BME280;71599;49.892;18.914;2023-09-12T16:21:29;98372.69;;;26.88;45.16
82035;BME280;71599;49.892;18.914;2023-09-12T16:26:30;98384.09;;;26.60;45.45
82035;BME280;71599;49.892;18.914;2023-09-12T16:31:31;98375.06;;;26.33;46.29
82035;BME280;71599;49.892;18.914;2023-09-12T16:36:33;98390.59;;;26.01;46.63
82035;BME280;71599;49.892;18.914;2023-09-12T16:41:34;98380.75;;;25.72;46.23
82035;BME280;71599;49.892;18.914;2023-09-12T16:46:35;98385.75;;;25.50;46.93
82035;BME280;71599;49.892;18.914;2023-09-12T16:51:38;98380.97;;;25.23;47.91
82035;BME280;71599;49.892;18.914;2023-09-12T16:56:39;98376.78;;;25.00;48.32
82035;BME280;71599;49.892;18.914;2023-09-12T17:01:40;98381.25;;;24.52;49.75
82035;BME280;71599;49.892;18.914;2023-09-12T17:06:42;98369.72;;;24.32;50.99
82035;BME280;71599;49.892;18.914;2023-09-12T17:11:43;98381.28;;;24.21;51.08
82035;BME280;71599;49.892;18.914;2023-09-12T17:16:44;98377.66;;;24.03;51.73
82035;BME280;71599;49.892;18.914;2023-09-12T17:21:46;98383.94;;;23.85;52.34
82035;BME280;71599;49.892;18.914;2023-09-12T17:26:47;98396.28;;;23.75;52.06
82035;BME280;71599;49.892;18.914;2023-09-12T17:31:48;98396.50;;;23.59;53.00
82035;BME280;71599;49.892;18.914;2023-09-12T17:36:51;98395.13;;;23.41;54.45
82035;BME280;71599;49.892;18.914;2023-09-12T17:41:52;98405.13;;;23.30;53.77
82035;BME280;71599;49.892;18.914;2023-09-12T17:46:53;98404.41;;;23.17;54.79
82035;BME280;71599;49.892;18.914;2023-09-12T17:51:55;98397.31;;;23.03;54.96
82035;BME280;71599;49.892;18.914;2023-09-12T17:56:56;98408.41;;;22.94;54.56
82035;BME280;71599;49.892;18.914;2023-09-12T18:01:57;98413.06;;;22.84;55.22
82035;BME280;71599;49.892;18.914;2023-09-12T18:07:00;98411.09;;;22.72;55.77
82035;BME280;71599;49.892;18.914;2023-09-12T18:12:02;98414.84;;;22.56;56.28
82035;BME280;71599;49.892;18.914;2023-09-12T18:17:03;98420.44;;;22.31;58.60
82035;BME280;71599;49.892;18.914;2023-09-12T18:22:05;98418.06;;;22.17;58.00
82035;BME280;71599;49.892;18.914;2023-09-12T18:27:07;98430.19;;;22.10;58.38
82035;BME280;71599;49.892;18.914;2023-09-12T18:32:08;98427.19;;;21.92;58.64
82035;BME280;71599;49.892;18.914;2023-09-12T18:37:11;98421.28;;;21.77;59.84
82035;BME280;71599;49.892;18.914;2023-09-12T18:42:12;98443.63;;;21.74;59.25
82035;BME280;71599;49.892;18.914;2023-09-12T18:47:13;98436.72;;;21.66;59.80
82035;BME280;71599;49.892;18.914;2023-09-12T18:52:15;98428.38;;;21.53;59.96
82035;BME280;71599;49.892;18.914;2023-09-12T18:57:16;98429.16;;;21.37;59.66
82035;BME280;71599;49.892;18.914;2023-09-12T19:02:18;98429.13;;;21.25;60.33
82035;BME280;71599;49.892;18.914;2023-09-12T19:07:20;98433.72;;;21.02;61.27
82035;BME280;71599;49.892;18.914;2023-09-12T19:12:21;98435.28;;;20.87;62.17
82035;BME280;71599;49.892;18.914;2023-09-12T19:17:22;98433.69;;;20.74;61.83
82035;BME280;71599;49.892;18.914;2023-09-12T19:22:25;98430.88;;;20.57;62.68
82035;BME280;71599;49.892;18.914;2023-09-12T19:27:26;98433.47;;;20.48;62.16
82035;BME280;71599;49.892;18.914;2023-09-12T19:32:27;98428.53;;;20.40;62.48
82035;BME280;71599;49.892;18.914;2023-09-12T19:37:30;98424.38;;;20.32;62.56
82035;BME280;71599;49.892;18.914;2023-09-12T19:42:31;98426.13;;;20.25;62.91
82035;BME280;71599;49.892;18.914;2023-09-12T19:47:32;98430.94;;;20.21;63.23
82035;BME280;71599;49.892;18.914;2023-09-12T19:52:34;98425.66;;;19.91;65.44
82035;BME280;71599;49.892;18.914;2023-09-12T19:57:35;98425.69;;;19.71;64.98
82035;BME280;71599;49.892;18.914;2023-09-12T20:02:36;98434.88;;;19.68;64.72
82035;BME280;71599;49.892;18.914;2023-09-12T20:07:38;98439.88;;;19.57;64.99
82035;BME280;71599;49.892;18.914;2023-09-12T20:12:39;98432.28;;;19.61;65.00
82035;BME280;71599;49.892;18.914;2023-09-12T20:17:40;98431.34;;;19.48;66.09
82035;BME280;71599;49.892;18.914;2023-09-12T20:22:43;98439.88;;;19.37;66.03
82035;BME280;71599;49.892;18.914;2023-09-12T20:27:44;98424.19;;;19.31;65.79
82035;BME280;71599;49.892;18.914;2023-09-12T20:32:45;98432.91;;;19.29;65.96
82035;BME280;71599;49.892;18.914;2023-09-12T20:37:47;98437.47;;;19.20;66.16
82035;BME280;71599;49.892;18.914;2023-09-12T20:42:48;98437.88;;;19.18;65.98
82035;BME280;71599;49.892;18.914;2023-09-12T20:47:49;98439.13;;;19.14;65.70
82035;BME280;71599;49.892;18.914;2023-09-12T20:52:52;98438.84;;;19.08;66.31
82035;BME280;71599;49.892;18.914;2023-09-12T20:57:53;98443.69;;;19.04;66.50
82035;BME280;71599;49.892;18.914;2023-09-12T21:02:54;98440.75;;;18.91;66.99
82035;BME280;71599;49.892;18.914;2023-09-12T21:07:57;98443.97;;;18.86;67.62
82035;BME280;71599;49.892;18.914;2023-09-12T21:12:58;98441.78;;;18.78;66.98
82035;BME280;71599;49.892;18.914;2023-09-12T21:17:59;98441.41;;;18.76;66.87
82035;BME280;71599;49.892;18.914;2023-09-12T21:23:02;98444.66;;;18.71;67.14
82035;BME280;71599;49.892;18.914;2023-09-12T21:28:03;98450.72;;;18.62;67.20
82035;BME280;71599;49.892;18.914;2023-09-12T21:33:05;98458.72;;;18.56;67.24
82035;BME280;71599;49.892;18.914;2023-09-12T21:38:07;98458.38;;;18.54;67.31
82035;BME280;71599;49.892;18.914;2023-09-12T21:43:08;98458.97;;;18.42;66.91
82035;BME280;71599;49.892;18.914;2023-09-12T21:48:09;98455.13;;;18.36;67.36
82035;BME280;71599;49.892;18.914;2023-09-12T21:53:11;98451.22;;;18.30;68.15
82035;BME280;71599;49.892;18.914;2023-09-12T21:58:12;98456.00;;;18.26;68.24
82035;BME280;71599;49.892;18.914;2023-09-12T22:03:13;98458.53;;;18.17;68.18
82035;BME280;71599;49.892;18.914;2023-09-12T22:08:16;98454.19;;;18.16;68.22
82035;BME280;71599;49.892;18.914;2023-09-12T22:13:17;98453.03;;;18.13;67.91
82035;BME280;71599;49.892;18.914;2023-09-12T22:18:18;98451.53;;;18.09;67.94
82035;BME280;71599;49.892;18.914;2023-09-12T22:23:20;98454.78;;;18.04;68.34
82035;BME280;71599;49.892;18.914;2023-09-12T22:28:21;98450.91;;;17.98;68.37
82035;BME280;71599;49.892;18.914;2023-09-12T22:33:22;98445.47;;;17.91;68.41
82035;BME280;71599;49.892;18.914;2023-09-12T22:38:25;98446.59;;;17.66;70.71
82035;BME280;71599;49.892;18.914;2023-09-12T22:43:26;98439.50;;;17.65;69.38
82035;BME280;71599;49.892;18.914;2023-09-12T22:48:27;98437.94;;;17.64;69.57
82035;BME280;71599;49.892;18.914;2023-09-12T22:53:29;98441.91;;;17.63;69.37
82035;BME280;71599;49.892;18.914;2023-09-12T22:58:30;98447.44;;;17.63;68.84
82035;BME280;71599;49.892;18.914;2023-09-12T23:03:31;98440.38;;;17.59;68.89
82035;BME280;71599;49.892;18.914;2023-09-12T23:08:34;98440.44;;;17.55;69.50
82035;BME280;71599;49.892;18.914;2023-09-12T23:13:34;98434.59;;;17.46;69.66
82035;BME280;71599;49.892;18.914;2023-09-12T23:18:36;98431.91;;;17.39;69.85
82035;BME280;71599;49.892;18.914;2023-09-12T23:23:38;98427.94;;;17.40;69.70
82035;BME280;71599;49.892;18.914;2023-09-12T23:28:39;98421.31;;;17.34;69.59
82035;BME280;71599;49.892;18.914;2023-09-12T23:33:40;98411.47;;;17.33;69.41
82035;BME280;71599;49.892;18.914;2023-09-12T23:38:42;98417.34;;;17.35;69.00
82035;BME280;71599;49.892;18.914;2023-09-12T23:43:43;98412.78;;;17.21;69.29
82035;BME280;71599;49.892;18.914;2023-09-12T23:48:44;98410.44;;;17.20;69.56
82035;BME280;71599;49.892;18.914;2023-09-12T23:53:46;98403.81;;;17.14;69.35
82035;BME280;71599;49.892;18.914;2023-09-12T23:58:47;98406.25;;;17.08;69.09
